createdAt,value
2023-01-27T00:00:03.960Z,13.6
2023-01-27T00:01:06.619Z,13.7
2023-01-27T00:02:09.135Z,13.6
2023-01-27T00:03:11.877Z,13.6
2023-01-27T00:04:14.452Z,13.6
2023-01-27T00:05:16.977Z,13.5
2023-01-27T00:06:19.504Z,13.7
2023-01-27T00:07:21.481Z,13.6
2023-01-27T00:08:23.743Z,13.7
2023-01-27T00:09:25.955Z,13.7
2023-01-27T00:10:28.447Z,13.6
2023-01-27T00:11:30.949Z,13.7
2023-01-27T00:12:33.470Z,13.7
2023-01-27T00:13:35.731Z,13.6
2023-01-27T00:14:38.231Z,13.6
2023-01-27T00:15:40.624Z,13.6
2023-01-27T00:16:43.543Z,13.7
2023-01-27T00:17:45.792Z,13.7
2023-01-27T00:18:48.286Z,13.7
2023-01-27T00:19:50.593Z,13.7
2023-01-27T00:20:52.866Z,13.7
2023-01-27T00:21:55.241Z,13.7
2023-01-27T00:22:57.754Z,13.6
2023-01-27T00:24:00.093Z,13.7
2023-01-27T00:25:02.876Z,13.7
2023-01-27T00:26:05.424Z,13.7
2023-01-27T00:27:07.667Z,13.7
2023-01-27T00:28:09.988Z,13.7
2023-01-27T00:29:12.210Z,13.7
2023-01-27T00:30:14.865Z,13.7
2023-01-27T00:31:17.638Z,13.7
2023-01-27T00:32:20.561Z,13.6
2023-01-27T00:33:23.043Z,13.6
2023-01-27T00:34:25.544Z,13.7
2023-01-27T00:35:28.040Z,13.7
2023-01-27T00:36:30.621Z,13.7
2023-01-27T00:37:33.172Z,13.7
2023-01-27T00:38:35.694Z,13.7
2023-01-27T00:39:38.185Z,13.7
2023-01-27T00:40:40.417Z,13.7
2023-01-27T00:41:42.921Z,13.7
2023-01-27T00:42:45.435Z,13.8
2023-01-27T00:43:47.985Z,13.7
2023-01-27T00:44:50.527Z,13.7
2023-01-27T00:45:52.769Z,13.8
2023-01-27T00:46:55.428Z,13.8
2023-01-27T00:47:58.056Z,13.8
2023-01-27T00:49:00.019Z,13.7
2023-01-27T00:50:02.305Z,13.7
2023-01-27T00:51:04.810Z,13.7
2023-01-27T00:52:06.782Z,13.8
2023-01-27T00:53:09.324Z,13.7
2023-01-27T00:54:11.563Z,13.7
2023-01-27T00:55:14.080Z,13.8
2023-01-27T00:56:16.311Z,13.7
2023-01-27T00:57:18.799Z,13.8
2023-01-27T00:58:21.326Z,13.7
2023-01-27T00:59:23.807Z,13.9
2023-01-27T01:00:26.333Z,13.9
2023-01-27T01:01:28.408Z,13.8
2023-01-27T01:02:30.785Z,13.7
2023-01-27T01:03:33.723Z,13.8
2023-01-27T01:04:35.669Z,13.8
2023-01-27T01:05:38.189Z,13.8
2023-01-27T01:06:40.404Z,13.8
2023-01-27T01:07:42.632Z,13.8
2023-01-27T01:08:45.195Z,13.9
2023-01-27T01:09:47.810Z,13.8
2023-01-27T01:10:50.073Z,13.8
2023-01-27T01:11:52.022Z,13.9
2023-01-27T01:12:54.530Z,13.8
2023-01-27T01:13:57.436Z,13.8
2023-01-27T01:14:59.687Z,13.8
2023-01-27T01:16:02.002Z,13.8
2023-01-27T01:17:04.449Z,13.8
2023-01-27T01:18:06.695Z,13.8
2023-01-27T01:19:09.267Z,13.9
2023-01-27T01:20:12.245Z,13.8
2023-01-27T01:21:16.118Z,13.8
2023-01-27T01:22:18.324Z,13.8
2023-01-27T01:23:20.857Z,13.8
2023-01-27T01:24:23.522Z,13.9
2023-01-27T01:25:25.684Z,13.8
2023-01-27T01:26:28.181Z,13.8
2023-01-27T01:27:30.717Z,13.8
2023-01-27T01:28:33.222Z,13.8
2023-01-27T01:29:35.736Z,13.8
2023-01-27T01:30:38.552Z,13.9
2023-01-27T01:31:40.930Z,13.9
2023-01-27T01:32:43.722Z,13.8
2023-01-27T01:33:46.005Z,13.9
2023-01-27T01:34:48.328Z,13.9
2023-01-27T01:35:50.822Z,13.9
2023-01-27T01:36:53.349Z,13.8
2023-01-27T01:37:55.854Z,13.8
2023-01-27T01:38:58.201Z,13.8
2023-01-27T01:40:00.469Z,13.9
2023-01-27T01:41:03.036Z,13.9
2023-01-27T01:42:05.262Z,13.9
2023-01-27T01:43:07.776Z,13.8
2023-01-27T01:44:10.003Z,13.8
2023-01-27T01:45:12.218Z,13.9
2023-01-27T01:46:14.913Z,13.8
2023-01-27T01:47:17.699Z,13.8
2023-01-27T01:48:19.923Z,13.9
2023-01-27T01:49:22.445Z,13.8
2023-01-27T01:50:25.042Z,13.8
2023-01-27T01:51:27.543Z,13.9
2023-01-27T01:52:29.771Z,13.9
2023-01-27T01:53:32.287Z,13.9
2023-01-27T01:54:34.795Z,13.9
2023-01-27T01:55:37.341Z,14
2023-01-27T01:56:39.545Z,14
2023-01-27T01:57:41.790Z,13.9
2023-01-27T01:58:44.497Z,13.9
2023-01-27T01:59:47.801Z,13.9
2023-01-27T02:00:50.033Z,13.9
2023-01-27T02:01:52.770Z,13.9
2023-01-27T02:02:55.466Z,13.9
2023-01-27T02:03:57.682Z,13.8
2023-01-27T02:04:59.943Z,13.9
2023-01-27T02:06:02.587Z,13.9
2023-01-27T02:07:04.699Z,13.8
2023-01-27T02:08:07.219Z,13.9
2023-01-27T02:09:09.459Z,13.9
2023-01-27T02:10:12.644Z,14
2023-01-27T02:11:16.591Z,13.8
2023-01-27T02:12:19.098Z,13.9
2023-01-27T02:13:21.600Z,13.8
2023-01-27T02:14:23.857Z,13.9
2023-01-27T02:15:26.369Z,13.9
2023-01-27T02:16:28.819Z,13.8
2023-01-27T02:17:31.243Z,13.9
2023-01-27T02:18:33.464Z,13.9
2023-01-27T02:19:35.683Z,13.9
2023-01-27T02:20:38.231Z,13.9
2023-01-27T02:21:40.809Z,14
2023-01-27T02:22:43.438Z,14
2023-01-27T02:23:45.796Z,14
2023-01-27T02:24:48.285Z,13.9
2023-01-27T02:25:50.980Z,13.9
2023-01-27T02:26:53.212Z,13.9
2023-01-27T02:27:55.425Z,14
2023-01-27T02:28:57.927Z,14
2023-01-27T02:30:00.535Z,13.9
2023-01-27T02:31:03.111Z,13.9
2023-01-27T02:32:05.896Z,13.9
2023-01-27T02:33:08.130Z,13.9
2023-01-27T02:34:10.618Z,13.9
2023-01-27T02:35:13.021Z,14
2023-01-27T02:36:17.283Z,13.9
2023-01-27T02:37:20.077Z,13.9
2023-01-27T02:38:22.598Z,13.9
2023-01-27T02:39:25.140Z,13.9
2023-01-27T02:40:27.460Z,13.9
2023-01-27T02:41:29.745Z,13.9
2023-01-27T02:42:32.287Z,14
2023-01-27T02:43:34.523Z,14
2023-01-27T02:44:36.749Z,13.9
2023-01-27T02:45:39.495Z,13.9
2023-01-27T02:46:42.010Z,13.9
2023-01-27T02:47:44.257Z,14
2023-01-27T02:48:46.782Z,13.8
2023-01-27T02:49:49.362Z,14
2023-01-27T02:50:51.878Z,13.8
2023-01-27T02:51:54.435Z,13.9
2023-01-27T02:52:57.111Z,13.9
2023-01-27T02:53:59.641Z,14
2023-01-27T02:55:02.279Z,13.9
2023-01-27T02:56:04.369Z,13.9
2023-01-27T02:57:06.897Z,13.9
2023-01-27T02:58:09.299Z,14
2023-01-27T02:59:11.890Z,13.9
2023-01-27T03:00:14.374Z,13.9
2023-01-27T03:01:16.737Z,13.9
2023-01-27T03:02:19.700Z,13.9
2023-01-27T03:03:22.420Z,13.9
2023-01-27T03:04:24.907Z,13.9
2023-01-27T03:05:27.158Z,13.9
2023-01-27T03:06:29.721Z,13.9
2023-01-27T03:07:32.268Z,14
2023-01-27T03:08:34.827Z,13.9
2023-01-27T03:09:37.363Z,14
2023-01-27T03:10:39.560Z,14
2023-01-27T03:11:42.253Z,14
2023-01-27T03:12:44.762Z,14
2023-01-27T03:13:47.503Z,14.1
2023-01-27T03:14:49.978Z,14.1
2023-01-27T03:15:52.599Z,13.9
2023-01-27T03:16:54.940Z,14.1
2023-01-27T03:17:57.178Z,13.9
2023-01-27T03:18:59.714Z,14
2023-01-27T03:20:01.683Z,14
2023-01-27T03:21:04.220Z,13.9
2023-01-27T03:22:06.355Z,14
2023-01-27T03:23:08.602Z,14
2023-01-27T03:24:11.329Z,14
2023-01-27T03:25:14.822Z,13.9
2023-01-27T03:26:18.015Z,13.9
2023-01-27T03:27:20.026Z,13.9
2023-01-27T03:28:22.360Z,14
2023-01-27T03:29:24.912Z,14
2023-01-27T03:30:27.141Z,14
2023-01-27T03:31:29.620Z,14
2023-01-27T03:32:32.647Z,14
2023-01-27T03:33:34.870Z,14
2023-01-27T03:34:37.391Z,13.9
2023-01-27T03:35:40.269Z,14.1
2023-01-27T03:36:43.773Z,14
2023-01-27T03:37:46.258Z,14
2023-01-27T03:38:48.897Z,14
2023-01-27T03:39:52.307Z,14.1
2023-01-27T03:40:54.858Z,13.9
2023-01-27T03:41:57.360Z,14
2023-01-27T03:42:59.643Z,14
2023-01-27T03:44:02.154Z,13.9
2023-01-27T03:45:04.725Z,14
2023-01-27T03:46:07.021Z,14
2023-01-27T03:47:09.620Z,14
2023-01-27T03:48:12.116Z,14
2023-01-27T03:49:14.620Z,13.9
2023-01-27T03:50:16.868Z,13.9
2023-01-27T03:51:19.432Z,14.1
2023-01-27T03:52:21.931Z,14
2023-01-27T03:53:24.426Z,14
2023-01-27T03:54:26.686Z,14
2023-01-27T03:55:29.237Z,13.9
2023-01-27T03:56:31.724Z,14
2023-01-27T03:57:34.047Z,14
2023-01-27T03:58:36.916Z,14
2023-01-27T03:59:39.430Z,14
2023-01-27T04:00:42.095Z,14
2023-01-27T04:01:44.655Z,14
2023-01-27T04:02:48.018Z,14
2023-01-27T04:03:50.789Z,14
2023-01-27T04:04:52.780Z,14
2023-01-27T04:05:55.068Z,14
2023-01-27T04:06:57.597Z,14
2023-01-27T04:08:00.208Z,13.9
2023-01-27T04:09:02.558Z,14
2023-01-27T04:10:05.211Z,14
2023-01-27T04:11:07.816Z,13.9
2023-01-27T04:12:10.312Z,14
2023-01-27T04:13:12.550Z,14
2023-01-27T04:14:15.034Z,13.9
2023-01-27T04:15:17.252Z,14.1
2023-01-27T04:16:19.820Z,13.9
2023-01-27T04:17:22.341Z,14
2023-01-27T04:18:24.835Z,14
2023-01-27T04:19:27.378Z,13.9
2023-01-27T04:20:29.914Z,13.9
2023-01-27T04:21:32.423Z,13.9
2023-01-27T04:22:34.130Z,14
2023-01-27T04:23:36.347Z,13.9
2023-01-27T04:24:38.851Z,13.9
2023-01-27T04:25:41.414Z,14
2023-01-27T04:26:44.028Z,14
2023-01-27T04:27:46.241Z,13.9
2023-01-27T04:28:48.780Z,13.9
2023-01-27T04:29:51.285Z,13.9
2023-01-27T04:30:53.625Z,13.8
2023-01-27T04:31:56.385Z,13.9
2023-01-27T04:32:59.353Z,13.9
2023-01-27T04:34:02.732Z,13.9
2023-01-27T04:35:05.231Z,13.9
2023-01-27T04:36:07.599Z,13.8
2023-01-27T04:37:10.514Z,13.9
2023-01-27T04:38:14.170Z,13.9
2023-01-27T04:39:16.459Z,14
2023-01-27T04:40:18.957Z,13.9
2023-01-27T04:41:21.468Z,13.9
2023-01-27T04:42:24.032Z,13.9
2023-01-27T04:43:26.570Z,13.9
2023-01-27T04:44:28.883Z,13.8
2023-01-27T04:45:31.467Z,13.8
2023-01-27T04:46:34.103Z,13.8
2023-01-27T04:47:36.628Z,13.8
2023-01-27T04:48:38.543Z,13.8
2023-01-27T04:49:40.878Z,13.8
2023-01-27T04:50:43.390Z,13.8
2023-01-27T04:51:47.647Z,13.8
2023-01-27T04:52:50.183Z,13.9
2023-01-27T04:53:52.623Z,13.8
2023-01-27T04:54:54.849Z,13.9
2023-01-27T04:55:57.361Z,13.9
2023-01-27T04:56:59.628Z,13.8
2023-01-27T04:58:02.537Z,13.9
2023-01-27T04:59:05.024Z,13.8
2023-01-27T05:00:07.454Z,13.8
2023-01-27T05:01:09.433Z,13.8
2023-01-27T05:02:12.114Z,13.9
2023-01-27T05:03:14.850Z,13.9
2023-01-27T05:04:17.664Z,13.8
2023-01-27T05:05:20.158Z,13.8
2023-01-27T05:06:22.682Z,13.8
2023-01-27T05:07:25.223Z,13.8
2023-01-27T05:08:27.738Z,13.9
2023-01-27T05:09:29.960Z,13.9
2023-01-27T05:10:32.176Z,13.9
2023-01-27T05:11:34.674Z,13.8
2023-01-27T05:12:37.210Z,13.8
2023-01-27T05:13:39.802Z,13.9
2023-01-27T05:14:42.066Z,13.8
2023-01-27T05:15:45.045Z,13.9
2023-01-27T05:16:47.963Z,13.8
2023-01-27T05:17:50.539Z,13.9
2023-01-27T05:18:53.086Z,13.8
2023-01-27T05:19:55.362Z,13.8
2023-01-27T05:20:58.040Z,13.8
2023-01-27T05:22:00.266Z,13.8
2023-01-27T05:23:02.552Z,13.8
2023-01-27T05:24:04.897Z,13.8
2023-01-27T05:25:07.631Z,13.7
2023-01-27T05:26:10.973Z,13.7
2023-01-27T05:27:13.185Z,13.8
2023-01-27T05:28:15.761Z,13.9
2023-01-27T05:29:18.310Z,13.9
2023-01-27T05:30:20.791Z,13.8
2023-01-27T05:31:23.529Z,13.8
2023-01-27T05:32:26.426Z,13.7
2023-01-27T05:33:28.716Z,13.8
2023-01-27T05:34:30.959Z,13.7
2023-01-27T05:35:33.235Z,13.7
2023-01-27T05:36:35.750Z,13.8
2023-01-27T05:37:37.734Z,13.8
2023-01-27T05:38:39.967Z,13.8
2023-01-27T05:39:42.193Z,13.6
2023-01-27T05:40:44.706Z,13.8
2023-01-27T05:41:47.211Z,13.8
2023-01-27T05:42:49.444Z,13.8
2023-01-27T05:43:51.672Z,13.8
2023-01-27T05:44:53.965Z,13.8
2023-01-27T05:45:56.461Z,13.8
2023-01-27T05:46:58.970Z,13.8
2023-01-27T05:48:01.582Z,13.8
2023-01-27T05:49:04.282Z,13.8
2023-01-27T05:50:06.835Z,13.9
2023-01-27T05:51:08.511Z,13.7
2023-01-27T05:52:12.307Z,13.8
2023-01-27T05:53:14.572Z,13.7
2023-01-27T05:54:17.141Z,13.9
2023-01-27T05:55:19.659Z,13.7
2023-01-27T05:56:22.201Z,13.8
2023-01-27T05:57:24.808Z,13.8
2023-01-27T05:58:27.095Z,13.8
2023-01-27T05:59:28.792Z,13.7
2023-01-27T06:00:31.377Z,13.8
2023-01-27T06:01:34.023Z,13.8
2023-01-27T06:02:36.483Z,13.9
2023-01-27T06:03:38.625Z,13.8
2023-01-27T06:04:40.868Z,13.8
2023-01-27T06:05:43.385Z,13.7
2023-01-27T06:06:45.592Z,13.9
2023-01-27T06:07:47.516Z,13.8
2023-01-27T06:08:50.234Z,13.7
2023-01-27T06:09:52.454Z,13.8
2023-01-27T06:10:55.007Z,13.8
2023-01-27T06:11:57.566Z,13.8
2023-01-27T06:12:59.780Z,13.7
2023-01-27T06:14:02.082Z,13.9
2023-01-27T06:15:04.422Z,13.7
2023-01-27T06:16:07.138Z,13.8
2023-01-27T06:17:09.344Z,13.7
2023-01-27T06:18:11.937Z,13.8
2023-01-27T06:19:14.306Z,13.8
2023-01-27T06:20:16.799Z,13.8
2023-01-27T06:21:19.056Z,13.8
2023-01-27T06:22:21.767Z,13.7
2023-01-27T06:23:24.267Z,13.8
2023-01-27T06:24:26.840Z,13.8
2023-01-27T06:25:29.536Z,13.7
2023-01-27T06:26:32.046Z,13.8
2023-01-27T06:27:34.281Z,13.7
2023-01-27T06:28:36.566Z,13.7
2023-01-27T06:29:39.001Z,13.8
2023-01-27T06:30:41.112Z,13.8
2023-01-27T06:31:44.019Z,13.8
2023-01-27T06:32:46.984Z,13.8
2023-01-27T06:33:49.484Z,13.7
2023-01-27T06:34:51.446Z,13.7
2023-01-27T06:35:54.019Z,13.7
2023-01-27T06:36:56.769Z,13.7
2023-01-27T06:37:59.290Z,13.8
2023-01-27T06:39:01.797Z,13.7
2023-01-27T06:40:04.305Z,13.7
2023-01-27T06:41:06.313Z,13.7
2023-01-27T06:42:08.333Z,13.8
2023-01-27T06:43:10.828Z,13.8
2023-01-27T06:44:13.078Z,13.7
2023-01-27T06:45:15.558Z,13.7
2023-01-27T06:46:18.235Z,13.7
2023-01-27T06:47:21.063Z,13.8
2023-01-27T06:48:22.464Z,13.8
2023-01-27T06:49:25.072Z,13.6
2023-01-27T06:50:27.696Z,13.7
2023-01-27T06:51:30.188Z,13.6
2023-01-27T06:52:32.295Z,13.8
2023-01-27T06:53:34.290Z,13.7
2023-01-27T06:54:37.346Z,13.7
2023-01-27T06:55:39.834Z,13.8
2023-01-27T06:56:42.419Z,13.8
2023-01-27T06:57:45.079Z,13.7
2023-01-27T06:58:47.596Z,13.7
2023-01-27T06:59:50.158Z,13.7
2023-01-27T07:00:52.652Z,13.7
2023-01-27T07:01:54.695Z,13.7
2023-01-27T07:02:57.563Z,13.8
2023-01-27T07:04:00.026Z,13.7
2023-01-27T07:05:02.654Z,13.7
2023-01-27T07:06:04.340Z,13.7
2023-01-27T07:07:06.898Z,13.7
2023-01-27T07:08:09.328Z,13.8
2023-01-27T07:09:11.838Z,13.8
2023-01-27T07:10:14.864Z,13.8
2023-01-27T07:11:18.154Z,13.7
2023-01-27T07:12:20.664Z,13.8
2023-01-27T07:13:22.885Z,13.7
2023-01-27T07:14:25.224Z,13.6
2023-01-27T07:15:27.443Z,13.7
2023-01-27T07:16:29.209Z,13.7
2023-01-27T07:17:32.050Z,13.7
2023-01-27T07:18:35.337Z,13.7
2023-01-27T07:19:37.550Z,13.7
2023-01-27T07:20:40.268Z,13.8
2023-01-27T07:21:43.207Z,13.7
2023-01-27T07:22:45.615Z,13.8
2023-01-27T07:23:48.272Z,13.7
2023-01-27T07:24:51.376Z,13.7
2023-01-27T07:25:53.870Z,13.8
2023-01-27T07:26:56.115Z,13.7
2023-01-27T07:27:58.399Z,13.8
2023-01-27T07:29:00.937Z,13.7
2023-01-27T07:30:03.478Z,13.7
2023-01-27T07:31:06.402Z,13.7
2023-01-27T07:32:09.529Z,13.6
2023-01-27T07:33:12.095Z,13.7
2023-01-27T07:34:14.411Z,13.6
2023-01-27T07:35:17.113Z,13.7
2023-01-27T07:36:19.627Z,13.7
2023-01-27T07:37:22.062Z,13.7
2023-01-27T07:38:24.653Z,13.7
2023-01-27T07:39:26.918Z,13.7
2023-01-27T07:40:29.075Z,13.7
2023-01-27T07:41:31.698Z,13.6
2023-01-27T07:42:34.226Z,13.7
2023-01-27T07:43:36.755Z,13.7
2023-01-27T07:44:39.028Z,13.7
2023-01-27T07:45:41.636Z,13.7
2023-01-27T07:46:44.416Z,13.6
2023-01-27T07:47:46.970Z,13.7
2023-01-27T07:48:48.929Z,13.6
2023-01-27T07:49:51.537Z,13.7
2023-01-27T07:50:53.476Z,13.7
2023-01-27T07:51:55.445Z,13.7
2023-01-27T07:52:58.012Z,13.6
2023-01-27T07:54:02.562Z,13.6
2023-01-27T07:55:04.836Z,13.7
2023-01-27T07:56:06.800Z,13.7
2023-01-27T07:57:09.125Z,13.7
2023-01-27T07:58:10.799Z,13.7
2023-01-27T07:59:13.052Z,13.6
2023-01-27T08:00:15.725Z,13.6
2023-01-27T08:01:17.938Z,13.6
2023-01-27T08:02:20.322Z,13.6
2023-01-27T08:03:23.040Z,13.6
2023-01-27T08:04:25.647Z,13.7
2023-01-27T08:05:27.957Z,13.7
2023-01-27T08:06:30.189Z,13.7
2023-01-27T08:07:32.723Z,13.7
2023-01-27T08:08:35.653Z,13.7
2023-01-27T08:09:40.204Z,13.6
2023-01-27T08:10:42.467Z,13.7
2023-01-27T08:11:44.707Z,13.5
2023-01-27T08:12:46.983Z,13.6
2023-01-27T08:13:49.766Z,13.7
2023-01-27T08:14:52.299Z,13.6
2023-01-27T08:15:54.251Z,13.6
2023-01-27T08:16:56.510Z,13.7
2023-01-27T08:17:58.505Z,13.6
2023-01-27T08:19:01.090Z,13.7
2023-01-27T08:20:03.363Z,13.6
2023-01-27T08:21:05.933Z,13.6
2023-01-27T08:22:08.472Z,13.6
2023-01-27T08:23:10.990Z,13.7
2023-01-27T08:24:13.622Z,13.6
2023-01-27T08:25:16.457Z,13.7
2023-01-27T08:26:18.464Z,13.6
2023-01-27T08:27:20.960Z,13.7
2023-01-27T08:28:23.476Z,13.7
2023-01-27T08:29:25.988Z,13.6
2023-01-27T08:30:28.605Z,13.7
2023-01-27T08:31:31.137Z,13.5
2023-01-27T08:32:33.654Z,13.5
2023-01-27T08:33:36.179Z,13.6
2023-01-27T08:34:38.499Z,13.7
2023-01-27T08:35:40.721Z,13.6
2023-01-27T08:36:43.284Z,13.6
2023-01-27T08:38:50.776Z,13.6
2023-01-27T08:39:53.302Z,13.6
2023-01-27T08:40:55.560Z,13.6
2023-01-27T08:41:58.088Z,13.6
2023-01-27T08:43:00.317Z,13.7
2023-01-27T08:44:06.805Z,13.7
2023-01-27T08:45:09.093Z,13.6
2023-01-27T08:46:11.473Z,13.7
2023-01-27T08:47:14.253Z,13.6
2023-01-27T08:48:16.192Z,13.6
2023-01-27T08:49:18.138Z,13.6
2023-01-27T08:50:20.071Z,13.6
2023-01-27T08:51:22.357Z,13.6
2023-01-27T08:52:25.098Z,13.6
2023-01-27T08:53:27.444Z,13.6
2023-01-27T08:54:30.819Z,13.6
2023-01-27T08:55:33.375Z,13.6
2023-01-27T08:56:35.897Z,13.6
2023-01-27T08:57:38.476Z,13.6
2023-01-27T08:58:40.993Z,13.6
2023-01-27T08:59:43.526Z,13.6
2023-01-27T09:00:46.024Z,13.7
2023-01-27T09:01:48.515Z,13.6
2023-01-27T09:02:50.742Z,13.6
2023-01-27T09:03:53.249Z,13.7
2023-01-27T09:04:55.985Z,13.7
2023-01-27T09:05:58.593Z,13.6
2023-01-27T09:07:00.908Z,13.7
2023-01-27T09:08:03.515Z,13.7
2023-01-27T09:09:06.036Z,13.6
2023-01-27T09:11:17.532Z,13.6
2023-01-27T09:12:19.793Z,13.7
2023-01-27T09:13:22.435Z,13.6
2023-01-27T09:14:25.008Z,13.7
2023-01-27T09:15:27.541Z,13.7
2023-01-27T09:16:30.277Z,13.5
2023-01-27T09:17:33.084Z,13.7
2023-01-27T09:18:35.623Z,13.6
2023-01-27T09:19:38.196Z,13.6
2023-01-27T09:20:40.480Z,13.7
2023-01-27T09:21:42.756Z,13.7
2023-01-27T09:22:45.318Z,13.6
2023-01-27T09:23:48.016Z,13.6
2023-01-27T09:24:50.548Z,13.6
2023-01-27T09:25:52.799Z,13.6
2023-01-27T09:26:55.114Z,13.6
2023-01-27T09:27:57.568Z,13.5
2023-01-27T09:29:00.112Z,13.6
2023-01-27T09:30:02.631Z,13.6
2023-01-27T09:31:04.758Z,13.5
2023-01-27T09:32:07.840Z,13.7
2023-01-27T09:33:11.092Z,13.6
2023-01-27T09:34:14.557Z,13.5
2023-01-27T09:35:17.272Z,13.6
2023-01-27T09:36:19.670Z,13.6
2023-01-27T09:37:21.644Z,13.6
2023-01-27T09:38:23.954Z,13.7
2023-01-27T09:39:26.556Z,13.5
2023-01-27T09:40:28.855Z,13.6
2023-01-27T09:41:31.494Z,13.7
2023-01-27T09:42:33.494Z,13.5
2023-01-27T09:43:35.713Z,13.6
2023-01-27T09:44:38.288Z,13.5
2023-01-27T09:45:40.838Z,13.6
2023-01-27T09:46:43.378Z,13.5
2023-01-27T09:47:45.616Z,13.7
2023-01-27T09:48:47.863Z,13.6
2023-01-27T09:49:50.414Z,13.7
2023-01-27T09:50:52.733Z,13.6
2023-01-27T09:51:54.435Z,13.7
2023-01-27T09:52:56.405Z,13.6
2023-01-27T09:53:58.916Z,13.6
2023-01-27T09:55:01.544Z,13.6
2023-01-27T09:56:03.793Z,13.6
2023-01-27T09:57:06.102Z,13.5
2023-01-27T09:58:08.643Z,13.6
2023-01-27T09:59:10.865Z,13.6
2023-01-27T10:00:14.120Z,13.6
2023-01-27T10:01:17.767Z,13.6
2023-01-27T10:02:20.491Z,13.6
2023-01-27T10:03:23.009Z,13.6
2023-01-27T10:04:25.382Z,13.6
2023-01-27T10:05:28.141Z,13.7
2023-01-27T10:06:30.400Z,13.6
2023-01-27T10:07:36.359Z,13.5
2023-01-27T10:08:39.011Z,13.6
2023-01-27T10:09:41.561Z,13.6
2023-01-27T10:10:43.876Z,13.5
2023-01-27T10:11:46.119Z,13.6
2023-01-27T10:12:48.678Z,13.6
2023-01-27T10:13:50.643Z,13.6
2023-01-27T10:14:53.153Z,13.7
2023-01-27T10:15:55.792Z,13.6
2023-01-27T10:16:58.488Z,13.6
2023-01-27T10:18:00.998Z,13.6
2023-01-27T10:19:03.276Z,13.6
2023-01-27T10:20:05.573Z,13.5
2023-01-27T10:21:08.101Z,13.5
2023-01-27T10:22:10.611Z,13.6
2023-01-27T10:23:13.140Z,13.5
2023-01-27T10:24:15.509Z,13.7
2023-01-27T10:25:18.361Z,13.6
2023-01-27T10:26:20.956Z,13.6
2023-01-27T10:27:22.943Z,13.6
2023-01-27T10:28:25.200Z,13.6
2023-01-27T10:29:27.703Z,13.6
2023-01-27T10:30:29.696Z,13.7
2023-01-27T10:31:32.362Z,13.5
2023-01-27T10:32:34.480Z,13.7
2023-01-27T10:33:36.987Z,13.6
2023-01-27T10:34:39.234Z,13.6
2023-01-27T10:35:41.174Z,13.5
2023-01-27T10:36:43.708Z,13.5
2023-01-27T10:37:46.245Z,13.6
2023-01-27T10:38:48.541Z,13.5
2023-01-27T10:39:51.187Z,13.6
2023-01-27T10:40:53.424Z,13.6
2023-01-27T10:41:56.006Z,13.5
2023-01-27T10:42:58.522Z,13.7
2023-01-27T10:44:00.776Z,13.6
2023-01-27T10:45:03.286Z,13.6
2023-01-27T10:46:06.011Z,13.6
2023-01-27T10:47:08.753Z,13.5
2023-01-27T10:48:11.266Z,13.5
2023-01-27T10:49:13.780Z,13.6
2023-01-27T10:50:16.532Z,13.6
2023-01-27T10:51:19.020Z,13.7
2023-01-27T10:52:21.262Z,13.6
2023-01-27T10:53:23.799Z,13.5
2023-01-27T10:54:26.106Z,13.6
2023-01-27T10:55:28.649Z,13.6
2023-01-27T10:56:30.648Z,13.6
2023-01-27T10:57:33.196Z,13.6
2023-01-27T10:58:35.726Z,13.6
2023-01-27T10:59:38.225Z,13.5
2023-01-27T11:01:45.377Z,13.6
2023-01-27T11:02:47.847Z,13.7
2023-01-27T11:03:50.487Z,13.6
2023-01-27T11:04:53.017Z,13.6
2023-01-27T11:05:55.519Z,13.5
2023-01-27T11:06:58.040Z,13.6
2023-01-27T11:08:00.617Z,13.6
2023-01-27T11:09:02.835Z,13.6
2023-01-27T11:10:05.453Z,13.5
2023-01-27T11:11:07.690Z,13.7
2023-01-27T11:12:09.985Z,13.7
2023-01-27T11:13:12.565Z,13.6
2023-01-27T11:14:15.082Z,13.6
2023-01-27T11:15:17.345Z,13.6
2023-01-27T11:16:19.376Z,13.6
2023-01-27T11:17:22.162Z,13.6
2023-01-27T11:18:24.467Z,13.5
2023-01-27T11:19:26.676Z,13.6
2023-01-27T11:20:29.231Z,13.6
2023-01-27T11:21:31.475Z,13.6
2023-01-27T11:22:33.723Z,13.6
2023-01-27T11:23:36.258Z,13.5
2023-01-27T11:24:38.771Z,13.7
2023-01-27T11:25:41.051Z,13.5
2023-01-27T11:26:43.562Z,13.6
2023-01-27T11:27:46.089Z,13.6
2023-01-27T11:28:48.681Z,13.6
2023-01-27T11:29:51.218Z,13.6
2023-01-27T11:30:53.916Z,13.6
2023-01-27T11:31:56.347Z,13.5
2023-01-27T11:32:59.145Z,13.7
2023-01-27T11:34:01.507Z,13.6
2023-01-27T11:35:03.760Z,13.6
2023-01-27T11:36:06.003Z,13.6
2023-01-27T11:37:08.520Z,13.7
2023-01-27T11:39:16.041Z,13.6
2023-01-27T11:40:18.624Z,13.6
2023-01-27T11:41:20.563Z,13.6
2023-01-27T11:42:22.832Z,13.5
2023-01-27T11:43:24.835Z,13.6
2023-01-27T11:44:27.138Z,13.5
2023-01-27T11:45:29.765Z,13.6
2023-01-27T11:46:31.591Z,13.6
2023-01-27T11:47:34.106Z,13.6
2023-01-27T11:48:36.339Z,13.5
2023-01-27T11:49:38.812Z,13.6
2023-01-27T11:50:41.317Z,13.6
2023-01-27T11:51:43.835Z,13.5
2023-01-27T11:52:46.334Z,13.6
2023-01-27T11:53:48.608Z,13.6
2023-01-27T11:54:50.831Z,13.6
2023-01-27T11:55:53.090Z,13.6
2023-01-27T11:56:55.315Z,13.6
2023-01-27T11:57:57.557Z,13.6
2023-01-27T11:58:59.827Z,13.6
2023-01-27T12:00:02.579Z,13.6
2023-01-27T12:01:04.265Z,13.6
2023-01-27T12:02:06.826Z,13.6
2023-01-27T12:03:08.843Z,13.5
2023-01-27T12:04:11.221Z,13.5
2023-01-27T12:05:13.936Z,13.6
2023-01-27T12:06:15.883Z,13.5
2023-01-27T12:07:18.403Z,13.6
2023-01-27T12:08:20.683Z,13.5
2023-01-27T12:09:22.352Z,13.6
2023-01-27T12:10:24.925Z,13.6
2023-01-27T12:11:27.214Z,13.5
2023-01-27T12:12:29.421Z,13.6
2023-01-27T12:13:31.924Z,13.6
2023-01-27T12:14:34.477Z,13.6
2023-01-27T12:15:37.052Z,13.6
2023-01-27T12:16:39.488Z,13.5
2023-01-27T12:17:42.008Z,13.6
2023-01-27T12:18:44.557Z,13.6
2023-01-27T12:19:46.816Z,13.6
2023-01-27T12:20:49.369Z,13.6
2023-01-27T12:21:51.895Z,13.6
2023-01-27T12:22:54.434Z,13.6
2023-01-27T12:23:57.155Z,13.6
2023-01-27T12:24:59.874Z,13.6
2023-01-27T12:26:02.332Z,13.5
2023-01-27T12:27:04.851Z,13.5
2023-01-27T12:28:07.115Z,13.4
2023-01-27T12:29:09.375Z,13.5
2023-01-27T12:30:12.494Z,13.6
2023-01-27T12:31:17.047Z,13.6
2023-01-27T12:32:19.932Z,13.5
2023-01-27T12:33:22.535Z,13.6
2023-01-27T12:34:25.067Z,13.5
2023-01-27T12:35:27.351Z,13.6
2023-01-27T12:36:30.930Z,13.6
2023-01-27T12:37:33.145Z,13.6
2023-01-27T12:38:35.431Z,13.6
2023-01-27T12:39:37.974Z,13.6
2023-01-27T12:40:39.920Z,13.6
2023-01-27T12:41:42.432Z,13.5
2023-01-27T12:42:44.114Z,13.7
2023-01-27T12:43:46.324Z,13.6
2023-01-27T12:44:48.840Z,13.6
2023-01-27T12:45:51.072Z,13.6
2023-01-27T12:46:53.705Z,13.6
2023-01-27T12:47:56.176Z,13.6
2023-01-27T12:48:58.091Z,13.6
2023-01-27T12:50:00.594Z,13.6
2023-01-27T12:51:03.120Z,13.5
2023-01-27T12:52:05.702Z,13.5
2023-01-27T12:53:07.953Z,13.7
2023-01-27T12:54:10.216Z,13.6
2023-01-27T12:55:12.746Z,13.6
2023-01-27T12:56:14.999Z,13.6
2023-01-27T12:57:17.519Z,13.6
2023-01-27T12:58:20.029Z,13.7
2023-01-27T12:59:21.986Z,13.5
2023-01-27T13:00:24.528Z,13.7
2023-01-27T13:01:26.841Z,13.5
2023-01-27T13:02:29.497Z,13.6
2023-01-27T13:03:31.839Z,13.6
2023-01-27T13:05:39.734Z,13.6
2023-01-27T13:06:42.319Z,13.6
2023-01-27T13:07:44.976Z,13.7
2023-01-27T13:08:47.233Z,13.6
2023-01-27T13:09:49.479Z,13.6
2023-01-27T13:10:52.057Z,13.5
2023-01-27T13:11:54.371Z,13.6
2023-01-27T13:12:56.891Z,13.6
2023-01-27T13:13:59.150Z,13.6
2023-01-27T13:15:01.281Z,13.6
2023-01-27T13:16:03.584Z,13.5
2023-01-27T13:17:06.291Z,13.6
2023-01-27T13:18:08.896Z,13.6
2023-01-27T13:19:11.204Z,13.6
2023-01-27T13:20:14.309Z,13.4
2023-01-27T13:21:18.109Z,13.6
2023-01-27T13:22:20.353Z,13.6
2023-01-27T13:23:22.658Z,13.6
2023-01-27T13:24:25.457Z,13.5
2023-01-27T13:25:27.971Z,13.6
2023-01-27T13:26:30.178Z,13.6
2023-01-27T13:27:32.690Z,13.5
2023-01-27T13:29:39.915Z,13.6
2023-01-27T13:30:41.353Z,13.5
2023-01-27T13:31:44.226Z,13.5
2023-01-27T13:32:46.779Z,13.6
2023-01-27T13:33:49.356Z,13.6
2023-01-27T13:34:51.883Z,13.6
2023-01-27T13:35:53.850Z,13.5
2023-01-27T13:36:56.072Z,13.6
2023-01-27T13:37:58.087Z,13.6
2023-01-27T13:39:00.359Z,13.6
2023-01-27T13:40:02.609Z,13.6
2023-01-27T13:41:04.959Z,13.5
2023-01-27T13:42:07.504Z,13.5
2023-01-27T13:43:09.722Z,13.5
2023-01-27T13:44:11.969Z,13.6
2023-01-27T13:45:13.649Z,13.5
2023-01-27T13:46:17.848Z,13.6
2023-01-27T13:47:20.484Z,13.5
2023-01-27T13:48:23.060Z,13.6
2023-01-27T13:49:25.700Z,13.6
2023-01-27T13:50:28.209Z,13.5
2023-01-27T13:51:30.744Z,13.6
2023-01-27T13:52:33.264Z,13.6
2023-01-27T13:53:35.518Z,13.6
2023-01-27T13:54:38.098Z,13.7
2023-01-27T13:55:40.645Z,13.6
2023-01-27T13:56:42.904Z,13.6
2023-01-27T13:57:45.513Z,13.6
2023-01-27T13:58:47.739Z,13.7
2023-01-27T13:59:49.963Z,13.6
2023-01-27T14:00:52.226Z,13.6
2023-01-27T14:01:54.747Z,13.5